JAL645 RJTT-RJFK
Flight info
| Callsign | JAL645 |
|---|---|
| Flight time | 1h 30m |
| Altitude | 36000 |
| Route | LAXAS Y56 TOHME Y54 TURFY Y24 SUC Y757 SPICA |
| Aircraft | A306/H-Q/LB1 |
Departure
| Time | 2026-05-08 01:48 |
|---|---|
| Airport | Tokyo Haneda International Airport (RJTT) |
Arrival
| Time | 2026-05-08 03:18 |
|---|---|
| Airport | Kagoshima Airport (RJFK) |
| Time | Latitude | Longitude | Altitude | Speed | Heading |
|---|---|---|---|---|---|
| 2026-05-08 01:25 | 35.54479 | 139.78577 | 32 ft | 0 kts | 332° |
| 2026-05-08 01:33 | 35.54466 | 139.78586 | 31 ft | 4 kts | 332° |
| 2026-05-08 01:33 | 35.54445 | 139.78599 | 31 ft | 2 kts | 332° |
| 2026-05-08 01:34 | 35.54426 | 139.78617 | 32 ft | 4 kts | 294° |
| 2026-05-08 01:34 | 35.54425 | 139.78645 | 34 ft | 4 kts | 244° |
| 2026-05-08 01:34 | 35.54430 | 139.78657 | 32 ft | 0 kts | 240° |
| 2026-05-08 01:39 | 35.54428 | 139.78654 | 32 ft | 1 kts | 238° |
| 2026-05-08 01:39 | 35.54426 | 139.78652 | 34 ft | 1 kts | 232° |
| 2026-05-08 01:40 | 35.54397 | 139.78639 | 34 ft | 6 kts | 181° |
| 2026-05-08 01:40 | 35.54348 | 139.78635 | 35 ft | 6 kts | 200° |
| 2026-05-08 01:40 | 35.54307 | 139.78585 | 33 ft | 11 kts | 240° |
| 2026-05-08 01:40 | 35.54256 | 139.78476 | 29 ft | 17 kts | 245° |
| 2026-05-08 01:41 | 35.54265 | 139.78391 | 28 ft | 7 kts | 311° |
| 2026-05-08 01:41 | 35.54311 | 139.78359 | 27 ft | 12 kts | 330° |
| 2026-05-08 01:41 | 35.54408 | 139.78290 | 27 ft | 20 kts | 329° |
| 2026-05-08 01:41 | 35.54549 | 139.78189 | 27 ft | 26 kts | 330° |
| 2026-05-08 01:42 | 35.54693 | 139.78088 | 28 ft | 23 kts | 329° |
| 2026-05-08 01:42 | 35.54822 | 139.77997 | 27 ft | 17 kts | 327° |
| 2026-05-08 01:42 | 35.54917 | 139.77928 | 28 ft | 15 kts | 331° |
| 2026-05-08 01:42 | 35.55004 | 139.77868 | 28 ft | 13 kts | 330° |
| 2026-05-08 01:43 | 35.55082 | 139.77813 | 26 ft | 12 kts | 330° |
| 2026-05-08 01:43 | 35.55152 | 139.77763 | 28 ft | 12 kts | 330° |
| 2026-05-08 01:43 | 35.55218 | 139.77717 | 28 ft | 10 kts | 330° |
| 2026-05-08 01:43 | 35.55275 | 139.77676 | 28 ft | 9 kts | 329° |
| 2026-05-08 01:44 | 35.55329 | 139.77637 | 28 ft | 11 kts | 329° |
| 2026-05-08 01:44 | 35.55410 | 139.77578 | 28 ft | 14 kts | 329° |
| 2026-05-08 01:44 | 35.55490 | 139.77521 | 29 ft | 13 kts | 330° |
| 2026-05-08 01:44 | 35.55563 | 139.77471 | 28 ft | 12 kts | 330° |
| 2026-05-08 01:45 | 35.55636 | 139.77419 | 28 ft | 12 kts | 329° |
| 2026-05-08 01:45 | 35.55707 | 139.77368 | 27 ft | 12 kts | 329° |
| 2026-05-08 01:45 | 35.55749 | 139.77311 | 27 ft | 8 kts | 281° |
| 2026-05-08 01:45 | 35.55736 | 139.77251 | 26 ft | 6 kts | 230° |
| 2026-05-08 01:46 | 35.55719 | 139.77234 | 28 ft | 0 kts | 217° |
| 2026-05-08 01:46 | 35.55687 | 139.77206 | 29 ft | 13 kts | 213° |
| 2026-05-08 01:47 | 35.55561 | 139.77226 | 29 ft | 27 kts | 154° |
| 2026-05-08 01:47 | 35.55261 | 139.77432 | 28 ft | 80 kts | 150° |
| 2026-05-08 01:47 | 35.54604 | 139.77897 | 26 ft | 135 kts | 150° |
| 2026-05-08 01:48 | 35.52731 | 139.79390 | 983 ft | 173 kts | 145° |
| 2026-05-08 01:48 | 35.51691 | 139.80220 | 1528 ft | 189 kts | 154° |
| 2026-05-08 01:48 | 35.50440 | 139.81012 | 1818 ft | 221 kts | 155° |
| 2026-05-08 01:48 | 35.48998 | 139.81948 | 2193 ft | 245 kts | 154° |
| 2026-05-08 01:49 | 35.47473 | 139.82996 | 2929 ft | 257 kts | 154° |
| 2026-05-08 01:49 | 35.45892 | 139.84089 | 3753 ft | 262 kts | 155° |
| 2026-05-08 01:49 | 35.44197 | 139.84911 | 4620 ft | 262 kts | 173° |
| 2026-05-08 01:49 | 35.42408 | 139.84836 | 5555 ft | 256 kts | 199° |
| 2026-05-08 01:50 | 35.40836 | 139.83866 | 6513 ft | 252 kts | 217° |
| 2026-05-08 01:50 | 35.39439 | 139.82564 | 7494 ft | 252 kts | 220° |
| 2026-05-08 01:50 | 35.38070 | 139.81228 | 8538 ft | 252 kts | 221° |
| 2026-05-08 01:50 | 35.36695 | 139.79884 | 9538 ft | 253 kts | 221° |
| 2026-05-08 01:51 | 35.35313 | 139.78540 | 10414 ft | 257 kts | 220° |
| 2026-05-08 01:51 | 35.33875 | 139.77147 | 10798 ft | 277 kts | 220° |
| 2026-05-08 01:51 | 35.32305 | 139.75633 | 11080 ft | 297 kts | 220° |
| 2026-05-08 01:51 | 35.30658 | 139.73989 | 11340 ft | 315 kts | 221° |
| 2026-05-08 01:52 | 35.28937 | 139.72200 | 11615 ft | 332 kts | 222° |
| 2026-05-08 01:52 | 35.27143 | 139.70326 | 11935 ft | 345 kts | 222° |
| 2026-05-08 01:52 | 35.25298 | 139.68399 | 12425 ft | 351 kts | 221° |
| 2026-05-08 01:52 | 35.23431 | 139.66450 | 13008 ft | 355 kts | 221° |
| 2026-05-08 01:53 | 35.21538 | 139.64477 | 13567 ft | 359 kts | 221° |
| 2026-05-08 01:53 | 35.19635 | 139.62492 | 14120 ft | 361 kts | 221° |
| 2026-05-08 01:53 | 35.17746 | 139.60524 | 14720 ft | 361 kts | 221° |
| 2026-05-08 01:53 | 35.15836 | 139.58536 | 15334 ft | 361 kts | 221° |
| 2026-05-08 01:54 | 35.13926 | 139.56550 | 15929 ft | 361 kts | 221° |
| 2026-05-08 01:54 | 35.12010 | 139.54557 | 16504 ft | 362 kts | 222° |
| 2026-05-08 01:54 | 35.10715 | 139.53211 | 16883 ft | 363 kts | 222° |
| 2026-05-08 01:54 | 35.08899 | 139.51080 | 17464 ft | 362 kts | 230° |
| 2026-05-08 01:55 | 35.07517 | 139.48562 | 18001 ft | 363 kts | 242° |
| 2026-05-08 01:55 | 35.06677 | 139.45639 | 18452 ft | 368 kts | 252° |
| 2026-05-08 01:55 | 35.06135 | 139.42563 | 18796 ft | 373 kts | 255° |
| 2026-05-08 01:55 | 35.05635 | 139.39440 | 19133 ft | 376 kts | 255° |
| 2026-05-08 01:56 | 35.05129 | 139.36297 | 19475 ft | 379 kts | 255° |
| 2026-05-08 01:56 | 35.04612 | 139.33132 | 19813 ft | 381 kts | 255° |
| 2026-05-08 01:56 | 35.04087 | 139.29951 | 20145 ft | 384 kts | 255° |
| 2026-05-08 01:56 | 35.03555 | 139.26750 | 20477 ft | 386 kts | 255° |
| 2026-05-08 01:57 | 35.03017 | 139.23528 | 20811 ft | 388 kts | 255° |
| 2026-05-08 01:57 | 35.02475 | 139.20292 | 21137 ft | 391 kts | 255° |
| 2026-05-08 01:57 | 35.01929 | 139.17037 | 21451 ft | 393 kts | 255° |
| 2026-05-08 01:57 | 35.01377 | 139.13761 | 21762 ft | 395 kts | 255° |
| 2026-05-08 01:58 | 35.00822 | 139.10471 | 22066 ft | 398 kts | 255° |
| 2026-05-08 01:58 | 35.00262 | 139.07160 | 22408 ft | 399 kts | 255° |
| 2026-05-08 01:58 | 34.99706 | 139.03879 | 22749 ft | 401 kts | 255° |
| 2026-05-08 01:58 | 34.99151 | 139.00537 | 23045 ft | 404 kts | 256° |
| 2026-05-08 01:59 | 34.98784 | 138.97121 | 23342 ft | 408 kts | 261° |
| 2026-05-08 01:59 | 34.98532 | 138.93659 | 23563 ft | 411 kts | 262° |
| 2026-05-08 01:59 | 34.98325 | 138.90171 | 23771 ft | 413 kts | 262° |
| 2026-05-08 01:59 | 34.98144 | 138.86662 | 24026 ft | 414 kts | 263° |
| 2026-05-08 02:00 | 34.97972 | 138.83155 | 24303 ft | 415 kts | 263° |
| 2026-05-08 02:00 | 34.97798 | 138.79640 | 24582 ft | 416 kts | 263° |
| 2026-05-08 02:00 | 34.97619 | 138.76113 | 24819 ft | 418 kts | 263° |
| 2026-05-08 02:00 | 34.97434 | 138.72563 | 25049 ft | 419 kts | 262° |
| 2026-05-08 02:01 | 34.97245 | 138.69013 | 25276 ft | 420 kts | 262° |
| 2026-05-08 02:01 | 34.97053 | 138.65452 | 25490 ft | 422 kts | 262° |
| 2026-05-08 02:01 | 34.96861 | 138.61891 | 25840 ft | 420 kts | 263° |
| 2026-05-08 02:01 | 34.96667 | 138.58332 | 26078 ft | 420 kts | 263° |
| 2026-05-08 02:02 | 34.96472 | 138.54771 | 26258 ft | 422 kts | 263° |
| 2026-05-08 02:02 | 34.96276 | 138.51226 | 26438 ft | 424 kts | 262° |
| 2026-05-08 02:02 | 34.96077 | 138.47632 | 26603 ft | 426 kts | 262° |
| 2026-05-08 02:02 | 34.95876 | 138.44016 | 26785 ft | 428 kts | 262° |
| 2026-05-08 02:03 | 34.95676 | 138.40406 | 27168 ft | 424 kts | 262° |
| 2026-05-08 02:03 | 34.95476 | 138.36833 | 27510 ft | 422 kts | 262° |
| 2026-05-08 02:03 | 34.95274 | 138.33257 | 27793 ft | 422 kts | 262° |
| 2026-05-08 02:03 | 34.95067 | 138.29695 | 28082 ft | 421 kts | 262° |
| 2026-05-08 02:04 | 34.94864 | 138.26135 | 28400 ft | 420 kts | 262° |
| 2026-05-08 02:04 | 34.94662 | 138.22588 | 28751 ft | 418 kts | 262° |
| 2026-05-08 02:04 | 34.94461 | 138.19051 | 29051 ft | 418 kts | 262° |
| 2026-05-08 02:04 | 34.94261 | 138.15569 | 29297 ft | 418 kts | 262° |
| 2026-05-08 02:05 | 34.94054 | 138.12040 | 29577 ft | 417 kts | 262° |
| 2026-05-08 02:05 | 34.93856 | 138.08515 | 29897 ft | 416 kts | 262° |
| 2026-05-08 02:05 | 34.93653 | 138.04993 | 30142 ft | 415 kts | 262° |
| 2026-05-08 02:05 | 34.93441 | 138.01490 | 30367 ft | 414 kts | 262° |
| 2026-05-08 02:06 | 34.93225 | 137.97994 | 30608 ft | 414 kts | 262° |
| 2026-05-08 02:06 | 34.93011 | 137.94488 | 30877 ft | 414 kts | 262° |
| 2026-05-08 02:06 | 34.92798 | 137.90996 | 31162 ft | 413 kts | 261° |
| 2026-05-08 02:06 | 34.92581 | 137.87509 | 31504 ft | 412 kts | 261° |
| 2026-05-08 02:07 | 34.92371 | 137.84024 | 31820 ft | 411 kts | 261° |
| 2026-05-08 02:07 | 34.92166 | 137.80605 | 32138 ft | 410 kts | 261° |
| 2026-05-08 02:07 | 34.91959 | 137.77161 | 32579 ft | 406 kts | 261° |
| 2026-05-08 02:07 | 34.91752 | 137.73737 | 32880 ft | 405 kts | 261° |
| 2026-05-08 02:08 | 34.91504 | 137.70317 | 33120 ft | 404 kts | 258° |
| 2026-05-08 02:08 | 34.90989 | 137.66976 | 33397 ft | 400 kts | 252° |
| 2026-05-08 02:08 | 34.90185 | 137.63739 | 33700 ft | 398 kts | 249° |
| 2026-05-08 02:08 | 34.89296 | 137.60552 | 33983 ft | 397 kts | 248° |
| 2026-05-08 02:09 | 34.88369 | 137.57396 | 34238 ft | 396 kts | 248° |
| 2026-05-08 02:09 | 34.87420 | 137.54248 | 34489 ft | 395 kts | 248° |
| 2026-05-08 02:09 | 34.86465 | 137.51112 | 34742 ft | 394 kts | 248° |
| 2026-05-08 02:09 | 34.85512 | 137.47981 | 35018 ft | 393 kts | 248° |
| 2026-05-08 02:10 | 34.84582 | 137.44853 | 35272 ft | 393 kts | 249° |
| 2026-05-08 02:10 | 34.83673 | 137.41717 | 35497 ft | 392 kts | 249° |
| 2026-05-08 02:10 | 34.82789 | 137.38618 | 35708 ft | 392 kts | 249° |
| 2026-05-08 02:10 | 34.81895 | 137.35478 | 35839 ft | 392 kts | 250° |
| 2026-05-08 02:11 | 34.80109 | 137.29206 | 35850 ft | 392 kts | 250° |
| 2026-05-08 02:11 | 34.78314 | 137.22944 | 35850 ft | 392 kts | 250° |
| 2026-05-08 02:12 | 34.76512 | 137.16686 | 35847 ft | 392 kts | 250° |
| 2026-05-08 02:12 | 34.74707 | 137.10428 | 35851 ft | 391 kts | 249° |
| 2026-05-08 02:13 | 34.72899 | 137.04185 | 35848 ft | 391 kts | 249° |
| 2026-05-08 02:13 | 34.71013 | 136.97978 | 35848 ft | 391 kts | 245° |
| 2026-05-08 02:14 | 34.68205 | 136.92327 | 35849 ft | 392 kts | 236° |
| 2026-05-08 02:14 | 34.64913 | 136.87083 | 35848 ft | 393 kts | 234° |
| 2026-05-08 02:15 | 34.61514 | 136.81885 | 35823 ft | 393 kts | 234° |
| 2026-05-08 02:15 | 34.58109 | 136.76676 | 35847 ft | 394 kts | 234° |
| 2026-05-08 02:16 | 34.54709 | 136.71456 | 35845 ft | 395 kts | 234° |
| 2026-05-08 02:16 | 34.51308 | 136.66222 | 35848 ft | 395 kts | 234° |
| 2026-05-08 02:17 | 34.47909 | 136.60996 | 35843 ft | 395 kts | 234° |
| 2026-05-08 02:17 | 34.44529 | 136.55812 | 35852 ft | 395 kts | 234° |
| 2026-05-08 02:18 | 34.41117 | 136.50594 | 35849 ft | 395 kts | 235° |
| 2026-05-08 02:18 | 34.37714 | 136.45385 | 35847 ft | 394 kts | 234° |
| 2026-05-08 02:19 | 34.34308 | 136.40174 | 35847 ft | 394 kts | 234° |
| 2026-05-08 02:19 | 34.30869 | 136.35004 | 35844 ft | 395 kts | 234° |
| 2026-05-08 02:20 | 34.27497 | 136.29764 | 35852 ft | 395 kts | 235° |
| 2026-05-08 02:20 | 34.24096 | 136.24542 | 35625 ft | 396 kts | 235° |
| 2026-05-08 02:21 | 34.22394 | 136.21938 | 35748 ft | 394 kts | 235° |
| 2026-05-08 02:21 | 34.20663 | 136.19368 | 35917 ft | 393 kts | 233° |
| 2026-05-08 02:21 | 34.17155 | 136.14292 | 35854 ft | 394 kts | 235° |
| 2026-05-08 02:22 | 34.13769 | 136.09096 | 35867 ft | 394 kts | 236° |
| 2026-05-08 02:22 | 34.10410 | 136.03881 | 35870 ft | 394 kts | 236° |
| 2026-05-08 02:23 | 34.07021 | 135.98743 | 35860 ft | 394 kts | 235° |
| 2026-05-08 02:23 | 34.03602 | 135.93600 | 35856 ft | 391 kts | 234° |
| 2026-05-08 02:24 | 34.00210 | 135.88475 | 35868 ft | 391 kts | 235° |
| 2026-05-08 02:24 | 33.96802 | 135.83348 | 35860 ft | 392 kts | 236° |
| 2026-05-08 02:25 | 33.93417 | 135.78177 | 35863 ft | 392 kts | 235° |
| 2026-05-08 02:25 | 33.89955 | 135.73086 | 35876 ft | 392 kts | 235° |
| 2026-05-08 02:26 | 33.86576 | 135.67999 | 35862 ft | 391 kts | 235° |
| 2026-05-08 02:26 | 33.83170 | 135.62886 | 35871 ft | 392 kts | 235° |
| 2026-05-08 02:27 | 33.79711 | 135.57804 | 35869 ft | 393 kts | 235° |
| 2026-05-08 02:27 | 33.76245 | 135.52740 | 35872 ft | 391 kts | 235° |
| 2026-05-08 02:28 | 33.72868 | 135.47676 | 35853 ft | 390 kts | 236° |
| 2026-05-08 02:28 | 33.69484 | 135.42575 | 35857 ft | 391 kts | 236° |
| 2026-05-08 02:29 | 33.66075 | 135.37486 | 35862 ft | 390 kts | 236° |
| 2026-05-08 02:29 | 33.62667 | 135.32432 | 35849 ft | 388 kts | 236° |
| 2026-05-08 02:30 | 33.59269 | 135.27401 | 35861 ft | 388 kts | 236° |
| 2026-05-08 02:30 | 33.55888 | 135.22402 | 35866 ft | 388 kts | 235° |
| 2026-05-08 02:31 | 33.52484 | 135.17376 | 35855 ft | 388 kts | 235° |
| 2026-05-08 02:31 | 33.49080 | 135.12356 | 35863 ft | 388 kts | 235° |
| 2026-05-08 02:32 | 33.45677 | 135.07345 | 35850 ft | 388 kts | 236° |
| 2026-05-08 02:32 | 33.42259 | 135.02319 | 35867 ft | 389 kts | 236° |
| 2026-05-08 02:33 | 33.38857 | 134.97321 | 35868 ft | 389 kts | 236° |
| 2026-05-08 02:33 | 33.35451 | 134.92319 | 35869 ft | 387 kts | 236° |
| 2026-05-08 02:34 | 33.32046 | 134.87321 | 35867 ft | 387 kts | 236° |
| 2026-05-08 02:34 | 33.28646 | 134.82338 | 35865 ft | 387 kts | 236° |
| 2026-05-08 02:35 | 33.25229 | 134.77337 | 35867 ft | 388 kts | 235° |
| 2026-05-08 02:35 | 33.21837 | 134.72382 | 35867 ft | 388 kts | 235° |
| 2026-05-08 02:36 | 33.18443 | 134.67380 | 35846 ft | 386 kts | 238° |
| 2026-05-08 02:36 | 33.15807 | 134.61853 | 35872 ft | 382 kts | 250° |
| 2026-05-08 02:37 | 33.14133 | 134.55843 | 35870 ft | 381 kts | 254° |
| 2026-05-08 02:37 | 33.12660 | 134.49784 | 35872 ft | 380 kts | 255° |
| 2026-05-08 02:38 | 33.11205 | 134.43719 | 35875 ft | 380 kts | 255° |
| 2026-05-08 02:38 | 33.09735 | 134.37696 | 35878 ft | 380 kts | 255° |
| 2026-05-08 02:39 | 33.08241 | 134.31641 | 35878 ft | 380 kts | 254° |
| 2026-05-08 02:39 | 33.06740 | 134.25588 | 35881 ft | 380 kts | 254° |
| 2026-05-08 02:40 | 33.05256 | 134.19539 | 35886 ft | 380 kts | 254° |
| 2026-05-08 02:40 | 33.03792 | 134.13489 | 35879 ft | 379 kts | 255° |
| 2026-05-08 02:41 | 33.02340 | 134.07491 | 35884 ft | 379 kts | 255° |
| 2026-05-08 02:41 | 33.00874 | 134.01455 | 35899 ft | 379 kts | 255° |
| 2026-05-08 02:42 | 32.99404 | 133.95424 | 35888 ft | 379 kts | 254° |
| 2026-05-08 02:42 | 32.97929 | 133.89393 | 35890 ft | 379 kts | 254° |
| 2026-05-08 02:43 | 32.96452 | 133.83363 | 35888 ft | 378 kts | 255° |
| 2026-05-08 02:43 | 32.94978 | 133.77357 | 35892 ft | 378 kts | 254° |
| 2026-05-08 02:44 | 32.93751 | 133.72372 | 35894 ft | 378 kts | 254° |
| 2026-05-08 02:44 | 32.92030 | 133.65392 | 35893 ft | 378 kts | 254° |
| 2026-05-08 02:45 | 32.90789 | 133.60371 | 35892 ft | 378 kts | 254° |
| 2026-05-08 02:45 | 32.89304 | 133.54379 | 35893 ft | 376 kts | 254° |
| 2026-05-08 02:46 | 32.87822 | 133.48410 | 35892 ft | 376 kts | 254° |
| 2026-05-08 02:46 | 32.86351 | 133.42496 | 35926 ft | 376 kts | 254° |
| 2026-05-08 02:47 | 32.84864 | 133.36530 | 35892 ft | 376 kts | 254° |
| 2026-05-08 02:47 | 32.83372 | 133.30562 | 35902 ft | 376 kts | 254° |
| 2026-05-08 02:48 | 32.81881 | 133.24609 | 35899 ft | 375 kts | 254° |
| 2026-05-08 02:48 | 32.80391 | 133.18674 | 35904 ft | 375 kts | 254° |
| 2026-05-08 02:49 | 32.78907 | 133.12777 | 35908 ft | 375 kts | 254° |
| 2026-05-08 02:49 | 32.77411 | 133.06842 | 35903 ft | 375 kts | 254° |
| 2026-05-08 02:50 | 32.75833 | 133.00935 | 35897 ft | 375 kts | 250° |
| 2026-05-08 02:50 | 32.73444 | 132.95413 | 35907 ft | 377 kts | 243° |
| 2026-05-08 02:51 | 32.70755 | 132.90062 | 35909 ft | 378 kts | 242° |
| 2026-05-08 02:51 | 32.68004 | 132.84732 | 35911 ft | 378 kts | 242° |
| 2026-05-08 02:52 | 32.65259 | 132.79403 | 35914 ft | 378 kts | 242° |
| 2026-05-08 02:52 | 32.62527 | 132.74078 | 35914 ft | 378 kts | 242° |
| 2026-05-08 02:53 | 32.59799 | 132.68756 | 35917 ft | 378 kts | 242° |
| 2026-05-08 02:53 | 32.57084 | 132.63465 | 35917 ft | 378 kts | 242° |
| 2026-05-08 02:54 | 32.54342 | 132.58131 | 35885 ft | 378 kts | 242° |
| 2026-05-08 02:54 | 32.51604 | 132.52815 | 35919 ft | 377 kts | 242° |
| 2026-05-08 02:55 | 32.47504 | 132.44867 | 35323 ft | 376 kts | 242° |
| 2026-05-08 02:55 | 32.46137 | 132.42221 | 34531 ft | 377 kts | 242° |
| 2026-05-08 02:56 | 32.44765 | 132.39564 | 33737 ft | 379 kts | 242° |
| 2026-05-08 02:56 | 32.43407 | 132.36936 | 32864 ft | 380 kts | 242° |
| 2026-05-08 02:56 | 32.42023 | 132.34263 | 32088 ft | 379 kts | 242° |
| 2026-05-08 02:56 | 32.40646 | 132.31606 | 31308 ft | 379 kts | 242° |
| 2026-05-08 02:57 | 32.39263 | 132.28938 | 30491 ft | 381 kts | 241° |
| 2026-05-08 02:57 | 32.37875 | 132.26263 | 29621 ft | 382 kts | 241° |
| 2026-05-08 02:57 | 32.36495 | 132.23607 | 29071 ft | 375 kts | 241° |
| 2026-05-08 02:57 | 32.35139 | 132.21001 | 28517 ft | 368 kts | 241° |
| 2026-05-08 02:58 | 32.33807 | 132.18444 | 27981 ft | 363 kts | 241° |
| 2026-05-08 02:58 | 32.32490 | 132.15911 | 27403 ft | 360 kts | 241° |
| 2026-05-08 02:58 | 32.31179 | 132.13392 | 26832 ft | 358 kts | 241° |
| 2026-05-08 02:58 | 32.29878 | 132.10893 | 26300 ft | 356 kts | 241° |
| 2026-05-08 02:59 | 32.28586 | 132.08412 | 25738 ft | 353 kts | 241° |
| 2026-05-08 02:59 | 32.27303 | 132.05950 | 25213 ft | 350 kts | 241° |
| 2026-05-08 02:59 | 32.26046 | 132.03539 | 24671 ft | 347 kts | 241° |
| 2026-05-08 02:59 | 32.24781 | 132.01117 | 24124 ft | 345 kts | 241° |
| 2026-05-08 03:00 | 32.23524 | 131.98712 | 23607 ft | 343 kts | 241° |
| 2026-05-08 03:00 | 32.22272 | 131.96324 | 23000 ft | 342 kts | 241° |
| 2026-05-08 03:00 | 32.21027 | 131.93945 | 22456 ft | 339 kts | 241° |
| 2026-05-08 03:00 | 32.19791 | 131.91580 | 21939 ft | 337 kts | 240° |
| 2026-05-08 03:01 | 32.18559 | 131.89223 | 21437 ft | 336 kts | 240° |
| 2026-05-08 03:01 | 32.17335 | 131.86885 | 20914 ft | 334 kts | 240° |
| 2026-05-08 03:01 | 32.16117 | 131.84560 | 20376 ft | 333 kts | 240° |
| 2026-05-08 03:01 | 32.14882 | 131.82201 | 19998 ft | 345 kts | 240° |
| 2026-05-08 03:02 | 32.13596 | 131.79750 | 19466 ft | 354 kts | 240° |
| 2026-05-08 03:02 | 32.12299 | 131.77281 | 19025 ft | 353 kts | 240° |
| 2026-05-08 03:02 | 32.11008 | 131.74830 | 18597 ft | 349 kts | 240° |
| 2026-05-08 03:02 | 32.09748 | 131.72434 | 18170 ft | 347 kts | 240° |
| 2026-05-08 03:03 | 32.08480 | 131.70026 | 17687 ft | 345 kts | 240° |
| 2026-05-08 03:03 | 32.07216 | 131.67625 | 17283 ft | 345 kts | 240° |
| 2026-05-08 03:03 | 32.05952 | 131.65228 | 16865 ft | 343 kts | 240° |
| 2026-05-08 03:03 | 32.04696 | 131.62848 | 16450 ft | 342 kts | 240° |
| 2026-05-08 03:04 | 32.03443 | 131.60473 | 16037 ft | 340 kts | 240° |
| 2026-05-08 03:04 | 32.02196 | 131.58111 | 15606 ft | 338 kts | 240° |
| 2026-05-08 03:04 | 32.00951 | 131.55755 | 15220 ft | 337 kts | 240° |
| 2026-05-08 03:04 | 31.99715 | 131.53416 | 14800 ft | 336 kts | 241° |
| 2026-05-08 03:05 | 31.98483 | 131.51087 | 14386 ft | 335 kts | 241° |
| 2026-05-08 03:05 | 31.97251 | 131.48758 | 13961 ft | 334 kts | 241° |
| 2026-05-08 03:05 | 31.96022 | 131.46437 | 13552 ft | 333 kts | 241° |
| 2026-05-08 03:05 | 31.94796 | 131.44124 | 13127 ft | 332 kts | 241° |
| 2026-05-08 03:06 | 31.93571 | 131.41827 | 12735 ft | 330 kts | 241° |
| 2026-05-08 03:06 | 31.92367 | 131.39572 | 12344 ft | 329 kts | 240° |
| 2026-05-08 03:06 | 31.91153 | 131.37299 | 11989 ft | 327 kts | 240° |
| 2026-05-08 03:06 | 31.89950 | 131.35035 | 11580 ft | 326 kts | 241° |
| 2026-05-08 03:07 | 31.88746 | 131.32781 | 11184 ft | 325 kts | 240° |
| 2026-05-08 03:07 | 31.87551 | 131.30556 | 10911 ft | 315 kts | 240° |
| 2026-05-08 03:07 | 31.86410 | 131.28417 | 10628 ft | 303 kts | 241° |
| 2026-05-08 03:07 | 31.85299 | 131.26347 | 10271 ft | 296 kts | 240° |
| 2026-05-08 03:08 | 31.84214 | 131.24336 | 10086 ft | 286 kts | 241° |
| 2026-05-08 03:08 | 31.83173 | 131.22402 | 9930 ft | 274 kts | 242° |
| 2026-05-08 03:08 | 31.82177 | 131.20551 | 9762 ft | 262 kts | 241° |
| 2026-05-08 03:08 | 31.81205 | 131.18747 | 9328 ft | 262 kts | 242° |
| 2026-05-08 03:09 | 31.80226 | 131.16923 | 8879 ft | 264 kts | 241° |
| 2026-05-08 03:09 | 31.79251 | 131.15105 | 8455 ft | 262 kts | 241° |
| 2026-05-08 03:09 | 31.78277 | 131.13292 | 8065 ft | 261 kts | 241° |
| 2026-05-08 03:09 | 31.77308 | 131.11494 | 7673 ft | 260 kts | 242° |
| 2026-05-08 03:10 | 31.76352 | 131.09718 | 7263 ft | 260 kts | 242° |
| 2026-05-08 03:10 | 31.75389 | 131.07927 | 6902 ft | 258 kts | 242° |
| 2026-05-08 03:10 | 31.74436 | 131.06153 | 6542 ft | 256 kts | 242° |
| 2026-05-08 03:10 | 31.73493 | 131.04398 | 6166 ft | 254 kts | 242° |
| 2026-05-08 03:11 | 31.72549 | 131.02638 | 5703 ft | 255 kts | 242° |
| 2026-05-08 03:11 | 31.71601 | 131.00876 | 5380 ft | 252 kts | 242° |
| 2026-05-08 03:11 | 31.70688 | 130.99187 | 5211 ft | 238 kts | 243° |
| 2026-05-08 03:11 | 31.69820 | 130.97581 | 5086 ft | 228 kts | 243° |
| 2026-05-08 03:12 | 31.68987 | 130.96038 | 4974 ft | 219 kts | 243° |
| 2026-05-08 03:12 | 31.68190 | 130.94570 | 4805 ft | 209 kts | 243° |
| 2026-05-08 03:12 | 31.67424 | 130.93131 | 4382 ft | 208 kts | 245° |
| 2026-05-08 03:12 | 31.66866 | 130.91597 | 3895 ft | 204 kts | 258° |
| 2026-05-08 03:13 | 31.66527 | 130.89969 | 3490 ft | 206 kts | 261° |
| 2026-05-08 03:13 | 31.66223 | 130.88330 | 3183 ft | 203 kts | 262° |
| 2026-05-08 03:13 | 31.66036 | 130.86716 | 3115 ft | 197 kts | 274° |
| 2026-05-08 03:13 | 31.66285 | 130.85162 | 3113 ft | 192 kts | 290° |
| 2026-05-08 03:14 | 31.66695 | 130.83741 | 3100 ft | 178 kts | 292° |
| 2026-05-08 03:14 | 31.67104 | 130.82417 | 3111 ft | 170 kts | 293° |
| 2026-05-08 03:14 | 31.67535 | 130.81129 | 3111 ft | 169 kts | 298° |
| 2026-05-08 03:14 | 31.68307 | 130.80110 | 3116 ft | 169 kts | 323° |
| 2026-05-08 03:15 | 31.69276 | 130.79419 | 3081 ft | 155 kts | 328° |
| 2026-05-08 03:15 | 31.70191 | 130.78806 | 2897 ft | 149 kts | 328° |
| 2026-05-08 03:15 | 31.71078 | 130.78202 | 2712 ft | 146 kts | 328° |
| 2026-05-08 03:15 | 31.71941 | 130.77620 | 2485 ft | 138 kts | 328° |
| 2026-05-08 03:16 | 31.72747 | 130.77075 | 2326 ft | 130 kts | 326° |
| 2026-05-08 03:16 | 31.73525 | 130.76548 | 2150 ft | 127 kts | 326° |
| 2026-05-08 03:16 | 31.74297 | 130.76027 | 1978 ft | 129 kts | 327° |
| 2026-05-08 03:16 | 31.75083 | 130.75496 | 1806 ft | 131 kts | 327° |
| 2026-05-08 03:17 | 31.75869 | 130.74965 | 1635 ft | 130 kts | 328° |
| 2026-05-08 03:17 | 31.76658 | 130.74431 | 1444 ft | 135 kts | 329° |
| 2026-05-08 03:17 | 31.77471 | 130.73878 | 1263 ft | 133 kts | 325° |
| 2026-05-08 03:17 | 31.78262 | 130.73346 | 1113 ft | 134 kts | 329° |
| 2026-05-08 03:18 | 31.79095 | 130.72792 | 910 ft | 142 kts | 325° |
| 2026-05-08 03:18 | 31.79908 | 130.72232 | 870 ft | 125 kts | 324° |
| 2026-05-08 03:18 | 31.80493 | 130.71832 | 874 ft | 60 kts | 330° |
| 2026-05-08 03:18 | 31.80790 | 130.71593 | 875 ft | 41 kts | 311° |
| 2026-05-08 03:19 | 31.80845 | 130.71500 | 879 ft | 0 kts | 297° |
| 2026-05-08 03:19 | 31.80849 | 130.71490 | 876 ft | 2 kts | 297° |
| 2026-05-08 03:19 | 31.80853 | 130.71481 | 876 ft | 2 kts | 294° |
| 2026-05-08 03:19 | 31.80851 | 130.71470 | 876 ft | 3 kts | 266° |
| 2026-05-08 03:20 | 31.80849 | 130.71436 | 875 ft | 5 kts | 266° |
| 2026-05-08 03:20 | 31.80841 | 130.71427 | 878 ft | 1 kts | 213° |
| 2026-05-08 03:20 | 31.80834 | 130.71421 | 878 ft | 1 kts | 207° |
| 2026-05-08 03:20 | 31.80824 | 130.71417 | 875 ft | 1 kts | 195° |
| 2026-05-08 03:21 | 31.80817 | 130.71417 | 875 ft | 1 kts | 184° |
| 2026-05-08 03:21 | 31.80805 | 130.71418 | 874 ft | 2 kts | 175° |
| 2026-05-08 03:21 | 31.80787 | 130.71420 | 874 ft | 3 kts | 169° |
| 2026-05-08 03:21 | 31.80768 | 130.71430 | 874 ft | 4 kts | 158° |
| 2026-05-08 03:22 | 31.80742 | 130.71446 | 873 ft | 5 kts | 150° |
| 2026-05-08 03:22 | 31.80700 | 130.71474 | 871 ft | 8 kts | 150° |
| 2026-05-08 03:22 | 31.80654 | 130.71505 | 871 ft | 7 kts | 150° |
| 2026-05-08 03:22 | 31.80612 | 130.71534 | 871 ft | 7 kts | 150° |
| 2026-05-08 03:23 | 31.80573 | 130.71560 | 872 ft | 6 kts | 150° |
| 2026-05-08 03:23 | 31.80539 | 130.71583 | 871 ft | 6 kts | 150° |
| 2026-05-08 03:23 | 31.80434 | 130.71654 | 873 ft | 25 kts | 150° |
| 2026-05-08 03:23 | 31.80288 | 130.71752 | 871 ft | 23 kts | 149° |
| 2026-05-08 03:24 | 31.80163 | 130.71839 | 868 ft | 17 kts | 149° |
| 2026-05-08 03:24 | 31.80130 | 130.71859 | 868 ft | 1 kts | 162° |
| 2026-05-08 03:24 | 31.80127 | 130.71859 | 868 ft | 0 kts | 165° |
| 2026-05-08 03:24 | 31.80125 | 130.71860 | 868 ft | 0 kts | 165° |
| 2026-05-08 03:25 | 31.80124 | 130.71860 | 868 ft | 1 kts | 165° |
| 2026-05-08 03:25 | 31.80098 | 130.71849 | 868 ft | 3 kts | 224° |
| 2026-05-08 03:25 | 31.80083 | 130.71826 | 869 ft | 3 kts | 231° |
| 2026-05-08 03:26 | 31.80074 | 130.71811 | 869 ft | 2 kts | 237° |
| 2026-05-08 03:26 | 31.80056 | 130.71777 | 872 ft | 8 kts | 239° |
| 2026-05-08 03:26 | 31.80037 | 130.71738 | 871 ft | 0 kts | 239° |
| 2026-05-08 03:26 | 31.80036 | 130.71737 | 870 ft | 0 kts | 239° |